Time;durP1;ratioP1;P1;durP2;ratioP2;P2;SDS_P1;SDS_P2;PMS_P1;PMS_P2;Temp;Humidity;BMP_temperature;BMP_pressure;BME280_temperature;BME280_humidity;BME280_pressure;Samples;Min_cycle;Max_cycle;Signal;HPM_P1;HPM_P2
2021/12/28 00:01:09;;;;;;;16.67;9.57;;;3.80;99.90;;;;;;4996988;28;20070;-83
2021/12/28 00:03:37;;;;;;;12.20;8.63;;;3.80;99.90;;;;;;4996981;28;20022;-83
2021/12/28 00:06:04;;;;;;;15.55;10.70;;;3.70;99.90;;;;;;4996803;28;20034;-83
2021/12/28 00:08:29;;;;;;;15.88;10.32;;;3.80;99.90;;;;;;4997919;28;20028;-93
2021/12/28 00:10:56;;;;;;;18.02;11.07;;;3.70;99.90;;;;;;4980772;28;20029;-93
2021/12/28 00:13:45;;;;;;;13.68;9.57;;;3.70;99.90;;;;;;4980636;28;20026;-94
2021/12/28 00:18:42;;;;;;;20.35;10.35;;;3.70;99.90;;;;;;4997996;28;20038;-93
2021/12/28 00:21:20;;;;;;;16.77;9.60;;;3.70;99.90;;;;;;4980343;28;20364;-93
2021/12/28 00:23:46;;;;;;;11.90;7.95;;;3.70;99.90;;;;;;4997436;28;20045;-92
2021/12/28 00:26:17;;;;;;;13.73;7.88;;;3.70;99.90;;;;;;4979359;28;20390;-83
2021/12/28 00:28:44;;;;;;;13.75;8.95;;;3.70;99.90;;;;;;4977060;28;20031;-83
2021/12/28 00:31:23;;;;;;;14.45;7.32;;;3.60;99.90;;;;;;4983684;28;20041;-83
2021/12/28 00:33:49;;;;;;;10.07;7.10;;;3.70;99.90;;;;;;4996535;28;20077;-83
2021/12/28 00:36:16;;;;;;;13.52;7.90;;;3.60;99.90;;;;;;4978743;28;20034;-83
2021/12/28 00:38:42;;;;;;;12.93;7.68;;;3.70;99.90;;;;;;4996150;28;20078;-83
2021/12/28 00:41:15;;;;;;;11.30;7.75;;;3.90;99.90;;;;;;4996319;28;20466;-83
2021/12/28 00:43:41;;;;;;;11.02;7.68;;;4.00;99.90;;;;;;4996045;28;20022;-83
2021/12/28 00:46:08;;;;;;;11.88;7.43;;;3.90;99.90;;;;;;4996056;28;20030;-83
2021/12/28 00:48:35;;;;;;;8.50;6.38;;;3.90;99.90;;;;;;4978704;28;20022;-83
2021/12/28 00:51:01;;;;;;;12.57;8.27;;;3.90;99.90;;;;;;4996199;28;20098;-83
2021/12/28 00:53:36;;;;;;;10.90;7.63;;;3.80;99.90;;;;;;4995610;28;20022;-83
2021/12/28 00:56:03;;;;;;;16.33;9.03;;;3.70;99.90;;;;;;4996036;28;20054;-83
2021/12/28 00:58:44;;;;;;;12.38;9.27;;;3.70;99.90;;;;;;4996002;28;20478;-83
2021/12/28 01:01:09;;;;;;;14.00;8.07;;;3.60;99.90;;;;;;4995774;28;20030;-83
2021/12/28 01:03:37;;;;;;;13.18;8.93;;;3.60;99.90;;;;;;4995628;28;20430;-84
2021/12/28 01:06:07;;;;;;;16.17;9.50;;;3.50;99.90;;;;;;4995575;28;20102;-83
2021/12/28 01:08:33;;;;;;;12.48;8.20;;;3.50;99.90;;;;;;4995348;28;20141;-83
2021/12/28 01:11:07;;;;;;;13.43;9.10;;;3.40;99.90;;;;;;4995686;28;20475;-83
2021/12/28 01:13:33;;;;;;;10.75;8.00;;;3.50;99.90;;;;;;4995444;28;20075;-83
2021/12/28 01:16:08;;;;;;;12.90;8.50;;;3.40;99.90;;;;;;4995581;28;20038;-83
2021/12/28 01:18:34;;;;;;;10.10;7.57;;;3.40;99.90;;;;;;4995264;28;20026;-83
2021/12/28 01:21:02;;;;;;;15.52;9.90;;;3.40;99.90;;;;;;4995292;28;20030;-83
2021/12/28 01:23:28;;;;;;;13.70;8.88;;;3.40;99.90;;;;;;4995076;28;20027;-82
2021/12/28 01:25:54;;;;;;;15.70;8.70;;;3.40;99.90;;;;;;4995255;28;20023;-83
2021/12/28 01:28:20;;;;;;;10.50;7.35;;;3.40;99.90;;;;;;4977733;28;20116;-83
2021/12/28 01:30:52;;;;;;;13.30;9.40;;;3.30;99.90;;;;;;4995369;28;20488;-83
2021/12/28 01:33:18;;;;;;;13.20;8.35;;;3.30;99.90;;;;;;4995420;28;20790;-83
2021/12/28 01:35:47;;;;;;;11.88;7.88;;;3.20;99.90;;;;;;4977912;28;20026;-83
2021/12/28 01:38:12;;;;;;;13.45;7.68;;;3.20;99.90;;;;;;4994663;28;20121;-83
2021/12/28 01:40:50;;;;;;;13.18;8.27;;;3.20;99.90;;;;;;4995030;28;20147;-83
2021/12/28 01:43:19;;;;;;;12.43;8.50;;;3.30;99.90;;;;;;4995135;28;20075;-84
2021/12/28 01:45:53;;;;;;;13.38;7.53;;;3.40;99.90;;;;;;4995180;28;20058;-83
2021/12/28 01:48:30;;;;;;;11.90;7.82;;;3.40;99.90;;;;;;4994969;28;20022;-83
2021/12/28 01:51:02;;;;;;;12.80;8.40;;;3.40;99.90;;;;;;4978169;28;20065;-83
2021/12/28 01:53:36;;;;;;;14.32;9.20;;;3.50;99.90;;;;;;4994372;28;20038;-84
2021/12/28 01:56:07;;;;;;;15.02;9.10;;;3.60;99.90;;;;;;4994954;28;20027;-83
2021/12/28 01:58:41;;;;;;;15.20;9.82;;;3.60;99.90;;;;;;4994735;28;20030;-84
2021/12/28 02:01:08;;;;;;;15.52;9.88;;;3.70;99.90;;;;;;4994572;28;20033;-83
2021/12/28 02:03:37;;;;;;;13.90;9.48;;;3.80;99.90;;;;;;4995006;28;20066;-83
2021/12/28 02:06:03;;;;;;;14.85;9.15;;;3.90;99.90;;;;;;4994447;28;20026;-83
2021/12/28 02:08:29;;;;;;;15.63;9.25;;;3.90;99.90;;;;;;4994443;28;20037;-84
2021/12/28 02:10:56;;;;;;;11.50;8.15;;;4.00;99.90;;;;;;4994650;28;20117;-84
2021/12/28 02:13:25;;;;;;;12.82;8.48;;;4.00;99.90;;;;;;4994317;28;20158;-83
2021/12/28 02:15:52;;;;;;;11.85;8.90;;;4.10;99.90;;;;;;4994133;28;20030;-83
2021/12/28 02:18:39;;;;;;;12.50;8.32;;;4.10;99.90;;;;;;4994295;28;20026;-84
2021/12/28 02:21:07;;;;;;;10.98;7.60;;;4.00;99.90;;;;;;4994317;28;20474;-84
2021/12/28 02:23:46;;;;;;;11.05;7.88;;;4.00;99.90;;;;;;4994121;28;20036;-83
2021/12/28 02:26:11;;;;;;;11.63;8.23;;;3.90;99.90;;;;;;4994397;28;20073;-83
2021/12/28 02:28:50;;;;;;;12.45;9.07;;;3.90;99.90;;;;;;4994455;28;20046;-84
2021/12/28 02:31:16;;;;;;;16.13;9.65;;;4.00;99.90;;;;;;4987655;28;20069;-84
2021/12/28 02:33:48;;;;;;;17.60;10.02;;;4.10;99.90;;;;;;4976906;28;20402;-84
2021/12/28 02:36:14;;;;;;;11.18;8.68;;;4.30;99.90;;;;;;4993794;28;20022;-83
2021/12/28 02:38:41;;;;;;;13.15;9.02;;;4.40;99.90;;;;;;4976535;28;20170;-83
2021/12/28 02:41:09;;;;;;;13.35;9.32;;;4.50;99.90;;;;;;4993997;28;20026;-83
2021/12/28 02:43:34;;;;;;;13.68;8.65;;;4.50;99.90;;;;;;4993715;28;20019;-84
2021/12/28 02:46:03;;;;;;;13.63;9.20;;;4.60;99.90;;;;;;4993820;28;20030;-83
2021/12/28 02:48:29;;;;;;;12.65;8.60;;;4.60;99.90;;;;;;4993882;28;20018;-82
2021/12/28 02:50:57;;;;;;;14.48;8.88;;;4.70;99.90;;;;;;4993440;28;20371;-83
2021/12/28 02:53:27;;;;;;;13.73;9.85;;;4.60;99.90;;;;;;4993187;28;20026;-83
2021/12/28 02:55:54;;;;;;;16.70;9.25;;;4.70;99.90;;;;;;4976394;28;20027;-84
2021/12/28 02:58:35;;;;;;;13.07;9.18;;;4.70;99.90;;;;;;4993839;28;20027;-83
2021/12/28 03:01:05;;;;;;;15.00;9.15;;;4.70;99.90;;;;;;4993674;28;20101;-83
2021/12/28 03:03:33;;;;;;;15.80;10.50;;;4.70;99.90;;;;;;4993557;28;20030;-83
2021/12/28 03:06:00;;;;;;;15.85;10.30;;;4.60;99.90;;;;;;4993289;28;20031;-83
2021/12/28 03:08:28;;;;;;;16.15;10.48;;;4.60;99.90;;;;;;4993730;28;20023;-83
2021/12/28 03:10:54;;;;;;;18.40;10.90;;;4.60;99.90;;;;;;4993647;28;20023;-83
2021/12/28 03:13:38;;;;;;;13.88;10.45;;;4.60;99.90;;;;;;4993284;28;20022;-83
2021/12/28 03:16:05;;;;;;;16.27;10.43;;;4.50;99.90;;;;;;4993314;28;20037;-83
2021/12/28 03:18:31;;;;;;;18.70;12.20;;;4.50;99.90;;;;;;4976183;28;20033;-83
2021/12/28 03:21:04;;;;;;;17.20;10.57;;;4.50;99.90;;;;;;4992872;28;20030;-83
2021/12/28 03:23:29;;;;;;;16.77;10.48;;;4.60;99.90;;;;;;4975133;28;20030;-82
2021/12/28 03:25:58;;;;;;;18.67;11.02;;;4.60;99.90;;;;;;4975835;28;20033;-83
2021/12/28 03:28:30;;;;;;;14.88;10.95;;;4.60;99.90;;;;;;4992428;28;20022;-82
2021/12/28 03:31:05;;;;;;;16.10;10.25;;;4.50;99.90;;;;;;4993334;28;20084;-84
2021/12/28 03:33:33;;;;;;;18.75;11.13;;;4.60;99.90;;;;;;4993147;28;20522;-83
2021/12/28 03:36:00;;;;;;;15.25;11.00;;;4.60;99.90;;;;;;4975481;28;20038;-83
2021/12/28 03:38:26;;;;;;;17.80;11.40;;;4.60;99.90;;;;;;4992895;28;20042;-83
2021/12/28 03:40:53;;;;;;;17.35;11.95;;;4.60;99.90;;;;;;4993534;28;20487;-84
2021/12/28 03:43:21;;;;;;;17.92;11.43;;;4.60;99.90;;;;;;4975976;28;20030;-83
2021/12/28 03:45:48;;;;;;;16.17;11.27;;;4.60;99.90;;;;;;4992737;28;20037;-83
2021/12/28 03:48:14;;;;;;;17.15;11.25;;;4.60;99.90;;;;;;4993175;28;20019;-84
2021/12/28 03:50:40;;;;;;;18.88;11.85;;;4.60;99.90;;;;;;4993060;28;20022;-82
2021/12/28 03:53:08;;;;;;;20.73;11.70;;;4.60;99.90;;;;;;4992669;28;20077;-83
2021/12/28 03:55:35;;;;;;;16.67;11.82;;;4.60;99.90;;;;;;4992971;28;20038;-83
2021/12/28 03:58:02;;;;;;;16.15;11.43;;;4.60;99.90;;;;;;4993129;28;20029;-84
2021/12/28 04:00:38;;;;;;;18.30;11.30;;;4.60;99.90;;;;;;4992925;28;20070;-83
2021/12/28 04:03:04;;;;;;;16.75;11.43;;;4.60;99.90;;;;;;4993133;28;20031;-83
2021/12/28 04:05:30;;;;;;;14.82;11.48;;;4.60;99.90;;;;;;4992736;28;20033;-83
2021/12/28 04:08:00;;;;;;;16.00;11.35;;;4.50;99.90;;;;;;4992320;28;20470;-83
2021/12/28 04:10:32;;;;;;;14.85;10.23;;;4.60;99.90;;;;;;4975271;28;20034;-83
2021/12/28 04:12:59;;;;;;;15.95;10.80;;;4.50;99.90;;;;;;4975431;28;20026;-83
2021/12/28 04:15:25;;;;;;;17.17;11.20;;;4.50;99.90;;;;;;4992720;28;20030;-83
2021/12/28 04:17:56;;;;;;;16.55;11.43;;;4.60;99.90;;;;;;4992784;28;20089;-83
2021/12/28 04:20:22;;;;;;;14.65;10.35;;;4.50;99.90;;;;;;4992886;28;20382;-83
2021/12/28 04:22:54;;;;;;;14.27;10.57;;;4.50;99.90;;;;;;4992112;28;20085;-83
2021/12/28 04:25:20;;;;;;;14.23;9.48;;;4.50;99.90;;;;;;4992974;28;20033;-83
2021/12/28 04:27:46;;;;;;;10.93;8.38;;;4.40;99.90;;;;;;4992756;28;20113;-83
2021/12/28 04:30:17;;;;;;;15.00;9.25;;;4.40;99.90;;;;;;4992488;28;20035;-83
2021/12/28 04:32:44;;;;;;;12.73;8.85;;;4.40;99.90;;;;;;4975239;28;20034;-83
2021/12/28 04:35:12;;;;;;;11.93;7.90;;;4.50;99.90;;;;;;4975212;28;20534;-83
2021/12/28 04:37:40;;;;;;;11.60;8.15;;;4.50;99.90;;;;;;4992344;28;20042;-84
2021/12/28 04:40:08;;;;;;;11.32;7.18;;;4.50;99.90;;;;;;4995008;28;20040;-83
2021/12/28 04:42:41;;;;;;;12.65;6.55;;;4.50;99.90;;;;;;4978757;28;20029;-84
2021/12/28 04:45:09;;;;;;;8.30;6.18;;;4.60;99.90;;;;;;4996099;28;20037;-82
2021/12/28 04:47:35;;;;;;;6.38;5.10;;;4.60;99.90;;;;;;4996534;28;20022;-83
2021/12/28 04:50:08;;;;;;;10.20;6.45;;;4.60;99.90;;;;;;4996301;28;20022;-83
2021/12/28 04:52:37;;;;;;;8.15;5.82;;;4.60;99.90;;;;;;4995542;28;20038;-83
2021/12/28 04:55:10;;;;;;;7.30;6.18;;;4.70;99.90;;;;;;4996035;28;20375;-83
2021/12/28 04:57:36;;;;;;;11.75;6.40;;;4.70;99.90;;;;;;4978780;28;20445;-83
2021/12/28 05:00:07;;;;;;;10.68;7.07;;;4.70;99.90;;;;;;4995925;28;20105;-83
2021/12/28 05:02:32;;;;;;;8.57;6.40;;;4.70;99.90;;;;;;4978106;28;20522;-83
2021/12/28 05:05:00;;;;;;;12.00;6.45;;;4.70;99.90;;;;;;4978391;28;20061;-84
2021/12/28 05:07:27;;;;;;;9.40;6.22;;;4.80;99.90;;;;;;4995595;28;20030;-84
2021/12/28 05:09:57;;;;;;;8.45;6.13;;;4.70;99.90;;;;;;4995761;28;20026;-84
2021/12/28 05:12:24;;;;;;;10.10;7.07;;;4.70;99.90;;;;;;4995372;28;20105;-84
2021/12/28 05:14:49;;;;;;;7.07;6.28;;;4.70;99.90;;;;;;4995753;28;20026;-84
2021/12/28 05:17:15;;;;;;;11.93;8.25;;;4.60;99.90;;;;;;4995821;28;20049;-84
2021/12/28 05:19:41;;;;;;;12.90;8.05;;;4.60;99.90;;;;;;5014542;28;20504;-84
2021/12/28 05:22:12;;;;;;;16.10;10.07;;;4.60;99.90;;;;;;4994383;28;20427;-83
2021/12/28 05:24:38;;;;;;;17.13;9.98;;;4.60;99.90;;;;;;4995609;28;20095;-83
2021/12/28 05:27:05;;;;;;;13.35;8.02;;;4.60;99.90;;;;;;4977962;28;20026;-84
2021/12/28 05:29:31;;;;;;;23.48;10.02;;;4.60;99.90;;;;;;4977936;28;20022;-84
2021/12/28 05:31:57;;;;;;;18.63;11.55;;;4.60;99.90;;;;;;4978055;28;20077;-83
2021/12/28 05:34:26;;;;;;;21.45;10.68;;;4.60;99.90;;;;;;4995574;28;20034;-83
2021/12/28 05:37:06;;;;;;;14.75;9.88;;;4.60;99.90;;;;;;4994929;28;20042;-83
2021/12/28 05:39:32;;;;;;;16.65;10.38;;;4.70;99.90;;;;;;4977808;28;20085;-83
2021/12/28 05:42:04;;;;;;;18.90;10.52;;;4.70;99.90;;;;;;4995300;28;20038;-84
2021/12/28 05:44:30;;;;;;;20.45;9.90;;;4.70;99.90;;;;;;4995138;28;20394;-83
2021/12/28 05:46:58;;;;;;;23.83;10.15;;;4.70;99.90;;;;;;4975973;28;20035;-83
2021/12/28 05:49:24;;;;;;;18.85;10.93;;;4.70;99.90;;;;;;4975890;28;20030;-83
2021/12/28 05:51:51;;;;;;;16.65;10.27;;;4.70;99.90;;;;;;4974272;28;20023;-83
2021/12/28 05:54:17;;;;;;;18.92;10.88;;;4.70;99.90;;;;;;4958495;28;20030;-84
2021/12/28 05:56:45;;;;;;;22.73;11.07;;;4.70;99.90;;;;;;4978740;28;20471;-84
2021/12/28 05:59:11;;;;;;;19.45;12.77;;;4.70;99.90;;;;;;4977448;28;20022;-84
2021/12/28 06:01:38;;;;;;;26.58;13.25;;;4.70;99.90;;;;;;4994852;28;20038;-83
2021/12/28 06:04:04;;;;;;;20.88;12.23;;;4.60;99.90;;;;;;4977429;28;20018;-84
2021/12/28 06:06:40;;;;;;;22.20;12.85;;;4.60;99.90;;;;;;4994557;28;20023;-83
2021/12/28 06:09:06;;;;;;;18.20;12.18;;;4.50;99.90;;;;;;4995061;28;20027;-84
2021/12/28 06:11:34;;;;;;;20.08;11.32;;;4.50;99.90;;;;;;4994769;28;20026;-83
2021/12/28 06:14:02;;;;;;;18.10;12.23;;;4.40;99.90;;;;;;4994738;28;20130;-83
2021/12/28 06:16:34;;;;;;;28.15;12.15;;;4.40;99.90;;;;;;4977011;28;20054;-83
2021/12/28 06:19:01;;;;;;;19.48;11.23;;;4.40;99.90;;;;;;4994649;28;20033;-83
2021/12/28 06:21:30;;;;;;;15.45;9.02;;;4.50;99.90;;;;;;4993936;28;20085;-84
2021/12/28 06:23:56;;;;;;;19.67;9.73;;;4.50;99.90;;;;;;4994199;28;20035;-84
2021/12/28 06:26:23;;;;;;;13.50;8.13;;;4.60;99.90;;;;;;4976895;28;20033;-84
2021/12/28 06:28:49;;;;;;;23.35;8.55;;;4.70;99.90;;;;;;4993557;28;20026;-84
2021/12/28 06:31:16;;;;;;;25.23;8.80;;;4.80;99.90;;;;;;4976227;28;20046;-83
2021/12/28 06:33:42;;;;;;;24.05;9.38;;;4.90;99.90;;;;;;4976515;28;20033;-84
2021/12/28 06:36:07;;;;;;;31.52;10.63;;;5.00;99.90;;;;;;4993704;28;20481;-84
2021/12/28 06:38:33;;;;;;;22.95;9.73;;;5.00;99.90;;;;;;4993347;28;20062;-84
2021/12/28 06:41:03;;;;;;;24.70;8.57;;;5.00;99.90;;;;;;4983476;28;20475;-84
2021/12/28 06:43:29;;;;;;;25.88;8.30;;;5.00;99.90;;;;;;4974492;28;20026;-84
2021/12/28 06:45:59;;;;;;;20.77;8.63;;;5.00;99.90;;;;;;4969625;28;20045;-84
2021/12/28 06:48:24;;;;;;;16.90;7.70;;;5.00;99.90;;;;;;4994022;28;20367;-84
2021/12/28 06:50:51;;;;;;;21.35;7.88;;;5.00;99.90;;;;;;4993406;28;20022;-83
2021/12/28 06:53:17;;;;;;;18.85;8.65;;;5.10;99.90;;;;;;4976096;28;20077;-83
2021/12/28 06:55:53;;;;;;;21.90;9.07;;;5.10;99.90;;;;;;4993790;28;20026;-83
2021/12/28 06:58:18;;;;;;;11.30;6.68;;;5.00;99.90;;;;;;4976527;28;20022;-83
2021/12/28 07:00:44;;;;;;;18.65;9.90;;;5.00;99.90;;;;;;4993399;28;20089;-83
2021/12/28 07:03:10;;;;;;;28.23;11.18;;;4.80;99.90;;;;;;4993088;28;20045;-84
2021/12/28 07:05:36;;;;;;;18.05;8.20;;;4.70;99.90;;;;;;4993022;28;20054;-83
2021/12/28 07:08:02;;;;;;;21.77;9.50;;;4.70;99.90;;;;;;4972586;28;20027;-83
2021/12/28 07:10:35;;;;;;;22.88;9.80;;;4.70;99.90;;;;;;4983351;28;20434;-83
2021/12/28 07:13:01;;;;;;;20.85;10.02;;;4.60;99.90;;;;;;4975927;28;20026;-83
2021/12/28 07:15:28;;;;;;;24.52;10.18;;;4.60;99.90;;;;;;4993582;28;20027;-84
2021/12/28 07:17:54;;;;;;;27.38;14.25;;;4.60;99.90;;;;;;4975692;28;20085;-84
2021/12/28 07:20:20;;;;;;;25.88;12.52;;;4.60;99.90;;;;;;4992753;28;20026;-83
2021/12/28 07:22:45;;;;;;;22.83;12.60;;;4.50;99.90;;;;;;4993345;28;20026;-83
2021/12/28 07:25:12;;;;;;;37.10;14.45;;;4.50;99.90;;;;;;4975864;28;20478;-84
2021/12/28 07:27:38;;;;;;;23.63;12.25;;;4.40;99.90;;;;;;4975669;28;20528;-83
2021/12/28 07:30:12;;;;;;;20.67;8.15;;;4.50;99.90;;;;;;4993363;28;20030;-83
2021/12/28 07:32:39;;;;;;;20.88;7.45;;;4.50;99.90;;;;;;4993114;28;20471;-83
2021/12/28 07:35:07;;;;;;;26.10;9.73;;;4.40;99.90;;;;;;4992755;28;20053;-83
2021/12/28 07:37:33;;;;;;;19.98;8.85;;;4.50;99.90;;;;;;4975686;28;20057;-84
2021/12/28 07:39:59;;;;;;;21.73;8.50;;;4.50;99.90;;;;;;4975482;28;20037;-84
2021/12/28 07:42:25;;;;;;;22.15;7.88;;;4.50;99.90;;;;;;4975662;28;20469;-83
2021/12/28 07:44:51;;;;;;;19.65;9.05;;;4.50;99.90;;;;;;4992908;28;20030;-83
2021/12/28 07:47:18;;;;;;;22.42;6.60;;;4.50;99.90;;;;;;4993279;28;20033;-83
2021/12/28 07:49:43;;;;;;;22.20;6.57;;;4.50;99.90;;;;;;4993255;28;20038;-84
2021/12/28 07:52:09;;;;;;;16.08;6.75;;;4.50;99.90;;;;;;4992676;28;20026;-83
2021/12/28 07:54:35;;;;;;;17.10;7.00;;;4.50;99.90;;;;;;4993094;28;20034;-84
2021/12/28 07:57:05;;;;;;;13.43;6.47;;;4.50;99.90;;;;;;4975461;28;20030;-84
2021/12/28 07:59:30;;;;;;;15.45;6.53;;;4.60;99.90;;;;;;4992691;28;20033;-83
2021/12/28 08:01:59;;;;;;;22.33;7.65;;;4.50;99.90;;;;;;4992927;28;20031;-84
2021/12/28 08:04:27;;;;;;;25.73;6.45;;;4.50;99.90;;;;;;4992995;28;20045;-84
2021/12/28 08:07:02;;;;;;;15.45;5.80;;;4.50;99.90;;;;;;4992424;28;20117;-83
2021/12/28 08:09:27;;;;;;;13.52;5.38;;;4.50;99.90;;;;;;4992841;28;20030;-83
2021/12/28 08:12:06;;;;;;;10.05;4.82;;;4.60;99.90;;;;;;4992730;28;20413;-83
2021/12/28 08:14:32;;;;;;;21.20;6.97;;;4.60;99.90;;;;;;4994486;28;20038;-84
2021/12/28 08:16:58;;;;;;;13.77;6.10;;;4.60;99.90;;;;;;4978341;28;20030;-84
2021/12/28 08:19:24;;;;;;;12.52;5.68;;;4.60;99.90;;;;;;4996833;28;20113;-84
2021/12/28 08:21:49;;;;;;;12.55;6.30;;;4.60;99.90;;;;;;4996343;28;20442;-83
2021/12/28 08:24:18;;;;;;;16.30;5.72;;;4.50;99.90;;;;;;4996488;28;20058;-84
2021/12/28 08:26:44;;;;;;;13.48;6.43;;;4.60;99.90;;;;;;4996323;28;20036;-84
2021/12/28 08:29:11;;;;;;;17.27;6.03;;;4.60;99.90;;;;;;4991664;28;20109;-83
2021/12/28 08:31:36;;;;;;;18.20;5.60;;;4.70;99.90;;;;;;4996259;28;20022;-83
2021/12/28 08:34:10;;;;;;;19.27;8.07;;;4.80;99.90;;;;;;4996906;28;20125;-84
2021/12/28 08:36:36;;;;;;;17.85;6.80;;;4.80;99.90;;;;;;4995485;28;20022;-83
2021/12/28 08:39:02;;;;;;;22.45;6.50;;;4.80;99.90;;;;;;4996480;28;20049;-83
2021/12/28 08:41:29;;;;;;;15.10;5.93;;;4.80;99.90;;;;;;4995125;28;20030;-81
2021/12/28 08:43:55;;;;;;;16.15;6.20;;;4.90;99.90;;;;;;4995338;28;20061;-81
2021/12/28 08:46:21;;;;;;;20.35;6.03;;;4.90;99.90;;;;;;4995543;28;20460;-81
2021/12/28 08:48:47;;;;;;;15.68;5.40;;;5.00;99.90;;;;;;4972570;28;20074;-81
2021/12/28 08:51:13;;;;;;;11.05;4.28;;;5.00;99.90;;;;;;4989879;28;20072;-81
2021/12/28 08:53:39;;;;;;;14.57;5.40;;;5.10;99.90;;;;;;4978393;28;20395;-83
2021/12/28 08:56:07;;;;;;;14.35;5.43;;;5.30;99.90;;;;;;4978248;28;20026;-83
2021/12/28 08:58:32;;;;;;;20.80;5.70;;;5.40;99.90;;;;;;4978191;28;20053;-84
2021/12/28 09:00:58;;;;;;;14.65;5.63;;;5.50;99.90;;;;;;4995277;28;20034;-83
2021/12/28 09:03:24;;;;;;;18.30;5.93;;;5.70;99.90;;;;;;4991262;28;20031;-83
2021/12/28 09:05:52;;;;;;;10.00;5.07;;;5.70;99.90;;;;;;4994642;28;20579;-83
2021/12/28 09:08:18;;;;;;;18.77;6.45;;;5.80;99.90;;;;;;4977940;28;20030;-83
2021/12/28 09:10:45;;;;;;;14.00;5.85;;;5.80;99.90;;;;;;4995209;28;20014;-83
2021/12/28 09:13:13;;;;;;;15.15;6.13;;;5.80;99.90;;;;;;4995352;28;20359;-82
2021/12/28 09:15:41;;;;;;;18.35;5.85;;;5.80;99.90;;;;;;4995535;28;20018;-82
2021/12/28 09:18:07;;;;;;;16.63;5.68;;;5.70;99.90;;;;;;4977827;28;20038;-83
2021/12/28 09:20:33;;;;;;;9.57;4.90;;;5.70;99.90;;;;;;4977746;28;20542;-83
2021/12/28 09:22:58;;;;;;;10.38;4.88;;;5.70;99.90;;;;;;4995577;28;20415;-82
2021/12/28 09:25:27;;;;;;;14.90;5.07;;;5.70;99.90;;;;;;4976869;28;20061;-82
2021/12/28 09:27:54;;;;;;;14.68;5.10;;;5.60;99.90;;;;;;4995393;28;20033;-83
2021/12/28 09:30:21;;;;;;;13.50;5.18;;;5.60;99.90;;;;;;4995682;28;20363;-82
2021/12/28 09:32:48;;;;;;;10.23;4.80;;;5.70;99.90;;;;;;4995134;28;20078;-83
2021/12/28 09:35:14;;;;;;;22.65;5.05;;;5.60;99.90;;;;;;4994851;28;20545;-83
2021/12/28 09:37:42;;;;;;;18.00;5.43;;;5.60;99.90;;;;;;4977840;28;20046;-83
2021/12/28 09:40:10;;;;;;;18.13;4.90;;;5.70;99.90;;;;;;4995470;28;20030;-83
2021/12/28 09:42:38;;;;;;;23.80;6.10;;;5.70;99.90;;;;;;4994539;28;20032;-82
2021/12/28 09:45:06;;;;;;;13.52;4.78;;;5.80;99.90;;;;;;4995276;28;20026;-83
2021/12/28 09:47:32;;;;;;;21.25;5.45;;;5.90;99.90;;;;;;4994728;28;20022;-83
2021/12/28 09:49:57;;;;;;;16.30;5.22;;;5.90;99.90;;;;;;4994307;28;20537;-83
2021/12/28 09:52:24;;;;;;;13.18;5.43;;;5.90;99.90;;;;;;4977279;28;20022;-83
2021/12/28 09:54:50;;;;;;;12.45;5.07;;;5.90;99.90;;;;;;4977095;28;20046;-83
2021/12/28 09:57:18;;;;;;;15.35;4.50;;;5.90;99.90;;;;;;4994236;28;20026;-83
2021/12/28 09:59:45;;;;;;;16.42;5.28;;;6.00;99.90;;;;;;4994345;28;20470;-83
2021/12/28 10:02:15;;;;;;;24.17;5.70;;;6.00;99.90;;;;;;4994543;28;20389;-82
2021/12/28 10:05:05;;;;;;;13.60;4.40;;;6.10;99.90;;;;;;4977042;28;20033;-83
2021/12/28 10:07:57;;;;;;;16.13;5.20;;;6.20;99.90;;;;;;4994767;28;20363;-82
2021/12/28 10:10:28;;;;;;;15.70;5.68;;;6.30;99.90;;;;;;4990517;28;20045;-83
2021/12/28 10:12:57;;;;;;;17.42;5.82;;;6.50;99.90;;;;;;4993696;28;20434;-83
2021/12/28 10:15:28;;;;;;;21.70;5.68;;;6.50;99.90;;;;;;4994753;28;20041;-83
2021/12/28 10:17:57;;;;;;;16.70;5.47;;;6.50;99.90;;;;;;4994542;28;20077;-82
2021/12/28 10:20:37;;;;;;;20.85;5.45;;;6.50;99.90;;;;;;4993989;28;20102;-82
2021/12/28 10:23:25;;;;;;;18.40;5.30;;;6.50;99.90;;;;;;4957387;28;20030;-82
2021/12/28 10:25:54;;;;;;;17.10;5.60;;;6.50;99.90;;;;;;4979525;28;20371;-83
2021/12/28 10:28:35;;;;;;;22.50;5.50;;;6.60;99.90;;;;;;4973380;28;20428;-83
2021/12/28 10:31:23;;;;;;;18.10;6.32;;;6.60;99.90;;;;;;4974561;28;20065;-83
2021/12/28 10:33:55;;;;;;;22.40;5.05;;;6.60;99.90;;;;;;4988109;28;20030;-83
2021/12/28 10:36:33;;;;;;;21.58;6.35;;;6.60;99.90;;;;;;4993389;28;20474;-83
2021/12/28 10:39:01;;;;;;;19.67;6.40;;;6.50;99.90;;;;;;4974000;28;20031;-83
2021/12/28 10:41:26;;;;;;;20.40;7.55;;;6.50;99.90;;;;;;4974028;28;20038;-82
2021/12/28 10:43:54;;;;;;;28.83;6.65;;;6.40;99.90;;;;;;4972038;28;20498;-83
2021/12/28 10:46:25;;;;;;;17.63;5.60;;;6.40;99.90;;;;;;4974795;28;20360;-82
2021/12/28 10:48:55;;;;;;;18.65;6.38;;;6.40;99.90;;;;;;4957238;28;20027;-82
2021/12/28 10:51:31;;;;;;;24.60;6.50;;;6.30;99.90;;;;;;4974035;28;20027;-83
2021/12/28 10:56:37;;;;;;;15.65;6.05;;;6.30;99.90;;;;;;4974803;28;20022;-83
2021/12/28 10:59:05;;;;;;;17.88;5.68;;;6.20;99.90;;;;;;4974410;28;20034;-83
2021/12/28 11:01:38;;;;;;;22.17;6.90;;;6.20;99.90;;;;;;4956740;28;20023;-83
2021/12/28 11:04:08;;;;;;;20.58;5.68;;;6.20;99.90;;;;;;4981898;28;20038;-82
2021/12/28 11:06:39;;;;;;;20.50;6.90;;;6.20;99.90;;;;;;4973713;28;20062;-82
2021/12/28 11:09:18;;;;;;;24.45;6.60;;;6.10;99.90;;;;;;4968360;28;20027;-88
2021/12/28 11:11:45;;;;;;;15.95;5.97;;;6.00;99.90;;;;;;4973667;28;20094;-83
2021/12/28 11:14:15;;;;;;;22.20;6.88;;;6.00;99.90;;;;;;4957762;28;20037;-82
2021/12/28 11:16:50;;;;;;;23.15;7.25;;;6.00;99.90;;;;;;4973087;28;20023;-83
2021/12/28 11:19:28;;;;;;;23.90;6.93;;;6.00;99.90;;;;;;4961019;28;20019;-83
2021/12/28 11:21:57;;;;;;;19.73;5.65;;;6.00;99.90;;;;;;4972973;28;20051;-82
2021/12/28 11:24:29;;;;;;;16.77;6.88;;;6.00;99.90;;;;;;4973701;28;20026;-83
2021/12/28 11:26:54;;;;;;;19.30;7.82;;;6.00;99.90;;;;;;4973162;28;20475;-83
2021/12/28 11:29:52;;;;;;;22.73;6.78;;;6.10;99.90;;;;;;4956689;28;20034;-83
2021/12/28 11:32:20;;;;;;;21.65;6.80;;;6.10;99.90;;;;;;4955640;28;20022;-82
2021/12/28 11:34:46;;;;;;;25.45;7.18;;;6.00;99.90;;;;;;4973492;28;20038;-82
2021/12/28 11:37:20;;;;;;;21.95;8.00;;;6.00;99.90;;;;;;4985667;28;20398;-82
2021/12/28 11:39:48;;;;;;;19.80;7.18;;;6.00;99.90;;;;;;4998379;28;20034;-82
2021/12/28 11:42:18;;;;;;;15.57;7.47;;;6.00;99.90;;;;;;4982080;28;20030;-82
2021/12/28 11:44:44;;;;;;;18.60;6.97;;;6.00;99.90;;;;;;4973959;28;20031;-82
2021/12/28 11:47:13;;;;;;;17.45;7.13;;;5.90;99.90;;;;;;4973592;28;20487;-82
2021/12/28 11:49:41;;;;;;;23.92;7.72;;;5.90;99.90;;;;;;4975475;28;20023;-82
2021/12/28 11:52:12;;;;;;;18.23;7.35;;;5.90;99.90;;;;;;4989676;28;20022;-82
2021/12/28 11:54:43;;;;;;;22.42;7.80;;;5.80;99.90;;;;;;4996918;28;20038;-82
2021/12/28 11:57:14;;;;;;;20.85;7.32;;;5.80;99.90;;;;;;4997221;28;20018;-82
2021/12/28 11:59:40;;;;;;;20.23;7.93;;;5.80;99.90;;;;;;4997019;28;20025;-82
2021/12/28 12:02:07;;;;;;;21.73;8.38;;;5.70;99.90;;;;;;4996788;28;20033;-82
2021/12/28 12:04:33;;;;;;;24.15;8.63;;;5.70;99.90;;;;;;4996755;28;20027;-82
2021/12/28 12:07:16;;;;;;;25.02;9.32;;;5.70;99.90;;;;;;4978799;28;20033;-82
2021/12/28 12:09:50;;;;;;;24.73;8.63;;;5.80;99.90;;;;;;4996680;28;20026;-82
2021/12/28 12:12:25;;;;;;;22.65;9.30;;;5.80;99.90;;;;;;4978685;28;20037;-82
2021/12/28 12:14:50;;;;;;;20.80;8.15;;;5.70;99.90;;;;;;4972997;28;20031;-82
2021/12/28 12:17:31;;;;;;;19.08;8.55;;;5.70;99.90;;;;;;4996647;28;20030;-82
2021/12/28 12:20:02;;;;;;;26.05;9.40;;;5.70;99.90;;;;;;4996245;28;20026;-82
2021/12/28 12:22:36;;;;;;;19.50;9.05;;;5.70;99.90;;;;;;4996507;28;20049;-82
2021/12/28 12:25:51;;;;;;;19.97;9.43;;;5.70;99.90;;;;;;4978884;28;20030;-82
2021/12/28 12:28:33;;;;;;;29.15;8.98;;;5.70;99.90;;;;;;4974736;28;20479;-82
2021/12/28 12:31:01;;;;;;;25.83;8.90;;;5.60;99.90;;;;;;4996102;28;20118;-82
2021/12/28 12:33:42;;;;;;;19.73;9.23;;;5.60;99.90;;;;;;4978981;28;20058;-82
2021/12/28 12:36:25;;;;;;;19.90;8.27;;;5.60;99.90;;;;;;4996095;28;20030;-83
2021/12/28 12:38:53;;;;;;;22.00;8.68;;;5.60;99.90;;;;;;4995774;28;20117;-83
2021/12/28 12:41:48;;;;;;;24.08;9.57;;;5.60;99.90;;;;;;4996166;28;20030;-83
2021/12/28 12:44:23;;;;;;;24.63;9.73;;;5.60;99.90;;;;;;4995325;28;20042;-83
2021/12/28 12:46:52;;;;;;;29.65;9.55;;;5.60;99.90;;;;;;4995343;28;20070;-83
2021/12/28 12:49:30;;;;;;;26.75;9.27;;;5.60;99.90;;;;;;4995006;28;20022;-83
2021/12/28 12:52:13;;;;;;;21.70;8.27;;;5.60;99.90;;;;;;4977676;28;20065;-83
2021/12/28 12:54:59;;;;;;;24.23;8.82;;;5.70;99.90;;;;;;4995892;28;20418;-84
2021/12/28 12:57:31;;;;;;;20.05;9.07;;;5.70;99.90;;;;;;4995680;28;20022;-83
2021/12/28 13:00:32;;;;;;;26.65;9.27;;;5.80;99.90;;;;;;4977584;28;20098;-84
2021/12/28 13:03:00;;;;;;;19.92;8.45;;;5.80;99.90;;;;;;4981095;28;20065;-83